createdAt,value
2019-03-08T00:01:48.882Z,99657.53
2019-03-08T00:04:15.173Z,99658.90
2019-03-08T00:06:41.339Z,99660.75
2019-03-08T00:09:09.014Z,99658.71
2019-03-08T00:11:35.491Z,99664.81
2019-03-08T00:14:01.752Z,99665.34
2019-03-08T00:16:28.110Z,99662.54
2019-03-08T00:18:54.415Z,99666.02
2019-03-08T00:21:20.571Z,99666.13
2019-03-08T00:23:46.732Z,99662.92
2019-03-08T00:26:12.925Z,99661.30
2019-03-08T00:28:39.088Z,99661.23
2019-03-08T00:31:05.251Z,99664.66
2019-03-08T00:33:31.427Z,99667.17
2019-03-08T00:35:57.695Z,99666.92
2019-03-08T00:38:25.156Z,99666.03
2019-03-08T00:40:51.356Z,99661.05
2019-03-08T00:43:17.522Z,99668.89
2019-03-08T00:45:43.787Z,99658.11
2019-03-08T00:48:09.972Z,99649.67
2019-03-08T00:50:36.507Z,99651.70
2019-03-08T00:53:02.980Z,99650.09
2019-03-08T00:55:29.170Z,99650.09
2019-03-08T00:57:55.540Z,99652.97
2019-03-08T01:00:21.691Z,99650.88
2019-03-08T01:02:47.885Z,99653.20
2019-03-08T01:05:16.063Z,99653.39
2019-03-08T01:07:42.215Z,99644.39
2019-03-08T01:10:11.607Z,99646.59
2019-03-08T01:12:37.773Z,99640.46
2019-03-08T01:15:15.579Z,99651.00
2019-03-08T01:17:41.741Z,99653.81
2019-03-08T01:20:10.628Z,99654.38
2019-03-08T01:22:36.821Z,99654.38
2019-03-08T01:25:05.278Z,99654.92
2019-03-08T01:27:31.440Z,99654.48
2019-03-08T01:29:57.736Z,99648.28
2019-03-08T01:32:24.005Z,99655.17
2019-03-08T01:34:50.266Z,99651.00
2019-03-08T01:37:16.448Z,99653.48
2019-03-08T01:39:42.714Z,99657.17
2019-03-08T01:42:08.979Z,99661.66
2019-03-08T01:44:35.172Z,99657.80
2019-03-08T01:47:01.534Z,99659.93
2019-03-08T01:49:27.704Z,99653.47
2019-03-08T01:51:53.887Z,99657.08
2019-03-08T01:54:20.053Z,99660.08
2019-03-08T01:56:46.326Z,99669.47
2019-03-08T01:59:12.518Z,99661.65
2019-03-08T02:01:38.670Z,99668.92
2019-03-08T02:04:05.141Z,99667.81
2019-03-08T02:06:31.331Z,99660.98
2019-03-08T02:08:57.482Z,99655.20
2019-03-08T02:11:23.642Z,99660.59
2019-03-08T02:13:49.938Z,99657.05
2019-03-08T02:16:16.094Z,99665.42
2019-03-08T02:18:42.361Z,99662.83
2019-03-08T02:21:08.661Z,99672.36
2019-03-08T02:23:34.809Z,99668.10
2019-03-08T02:26:00.970Z,99671.30
2019-03-08T02:28:27.171Z,99669.91
2019-03-08T02:30:53.423Z,99677.64
2019-03-08T02:33:19.572Z,99679.43
2019-03-08T02:35:45.866Z,99679.16
2019-03-08T02:38:12.055Z,99691.30
2019-03-08T02:40:38.342Z,99683.73
2019-03-08T02:43:09.364Z,99686.50
2019-03-08T02:45:35.498Z,99680.46
2019-03-08T02:48:01.657Z,99680.69
2019-03-08T02:50:27.847Z,99677.73
2019-03-08T02:52:54.009Z,99683.72
2019-03-08T02:55:20.163Z,99675.83
2019-03-08T02:57:46.565Z,99679.55
2019-03-08T03:00:17.677Z,99675.49
2019-03-08T03:02:43.959Z,99683.47
2019-03-08T03:05:10.150Z,99680.84
2019-03-08T03:07:36.422Z,99686.95
2019-03-08T03:10:04.586Z,99680.16
2019-03-08T03:12:30.770Z,99677.92
2019-03-08T03:14:57.032Z,99675.52
2019-03-08T03:17:23.300Z,99679.06
2019-03-08T03:19:49.593Z,99682.41
2019-03-08T03:22:15.745Z,99680.41
2019-03-08T03:24:41.901Z,99687.13
2019-03-08T03:27:08.097Z,99682.01
2019-03-08T03:29:34.248Z,99686.05
2019-03-08T03:32:00.602Z,99680.98
2019-03-08T03:34:26.792Z,99676.84
2019-03-08T03:36:52.960Z,99686.91
2019-03-08T03:39:19.204Z,99685.55
2019-03-08T03:41:45.464Z,99684.23
2019-03-08T03:44:11.626Z,99683.47
2019-03-08T03:46:37.779Z,99689.30
2019-03-08T03:49:03.971Z,99682.64
2019-03-08T03:51:30.853Z,99681.55
2019-03-08T03:53:57.108Z,99687.69
2019-03-08T03:56:23.293Z,99677.92
2019-03-08T03:58:49.452Z,99678.27
2019-03-08T04:01:23.582Z,99688.06
2019-03-08T04:03:49.773Z,99683.37
2019-03-08T04:06:16.441Z,99690.11
2019-03-08T04:08:42.605Z,99702.38
2019-03-08T04:11:08.800Z,99693.76
2019-03-08T04:13:34.956Z,99690.06
2019-03-08T04:16:01.112Z,99689.71
2019-03-08T04:18:27.304Z,99690.93
2019-03-08T04:20:53.467Z,99688.73
2019-03-08T04:23:19.613Z,99696.63
2019-03-08T04:25:45.913Z,99695.55
2019-03-08T04:28:12.074Z,99699.98
2019-03-08T04:30:38.223Z,99695.54
2019-03-08T04:33:04.414Z,99703.73
2019-03-08T04:35:30.712Z,99704.66
2019-03-08T04:37:57.233Z,99721.89
2019-03-08T04:40:23.454Z,99714.13
2019-03-08T04:42:50.476Z,99713.27
2019-03-08T04:45:16.631Z,99713.02
2019-03-08T04:47:42.824Z,99716.33
2019-03-08T04:50:10.583Z,99720.02
2019-03-08T04:52:36.762Z,99713.64
2019-03-08T04:55:13.753Z,99714.39
2019-03-08T04:57:40.008Z,99723.90
2019-03-08T05:00:12.096Z,99720.32
2019-03-08T05:02:38.553Z,99716.36
2019-03-08T05:05:04.983Z,99719.87
2019-03-08T05:07:31.279Z,99719.77
2019-03-08T05:09:57.468Z,99718.94
2019-03-08T05:12:23.619Z,99718.12
2019-03-08T05:14:49.782Z,99720.90
2019-03-08T05:17:15.964Z,99719.20
2019-03-08T05:19:42.222Z,99716.90
2019-03-08T05:22:08.428Z,99712.81
2019-03-08T05:24:34.630Z,99707.16
2019-03-08T05:27:00.767Z,99701.06
2019-03-08T05:29:26.925Z,99704.22
2019-03-08T05:31:53.110Z,99696.81
2019-03-08T05:34:19.662Z,99695.17
2019-03-08T05:36:45.823Z,99690.09
2019-03-08T05:39:12.024Z,99686.01
2019-03-08T05:41:38.284Z,99689.58
2019-03-08T05:44:04.564Z,99684.58
2019-03-08T05:46:30.748Z,99683.66
2019-03-08T05:48:56.898Z,99687.95
2019-03-08T05:51:23.054Z,99685.57
2019-03-08T05:53:49.441Z,99683.61
2019-03-08T05:56:15.602Z,99678.98
2019-03-08T05:58:41.761Z,99678.75
2019-03-08T06:01:08.291Z,99672.24
2019-03-08T06:03:34.439Z,99678.05
2019-03-08T06:06:00.596Z,99679.37
2019-03-08T06:08:26.801Z,99679.44
2019-03-08T06:10:52.970Z,99678.33
2019-03-08T06:13:19.322Z,99692.20
2019-03-08T06:15:45.512Z,99700.25
2019-03-08T06:18:11.676Z,99699.41
2019-03-08T06:20:37.937Z,99712.19
2019-03-08T06:23:04.709Z,99720.09
2019-03-08T06:25:31.122Z,99718.45
2019-03-08T06:27:57.279Z,99722.76
2019-03-08T06:30:23.577Z,99717.66
2019-03-08T06:32:50.133Z,99729.78
2019-03-08T06:35:16.298Z,99726.23
2019-03-08T06:37:42.470Z,99726.28
2019-03-08T06:40:12.744Z,99727.98
2019-03-08T06:42:38.902Z,99727.66
2019-03-08T06:45:11.238Z,99726.44
2019-03-08T06:47:37.504Z,99725.68
2019-03-08T06:50:07.077Z,99723.98
2019-03-08T06:52:33.525Z,99734.35
2019-03-08T06:54:59.681Z,99728.84
2019-03-08T06:57:25.846Z,99726.36
2019-03-08T06:59:53.936Z,99721.75
2019-03-08T07:02:20.809Z,99721.03
2019-03-08T07:04:46.964Z,99726.87
2019-03-08T07:07:13.598Z,99724.75
2019-03-08T07:09:39.755Z,99715.62
2019-03-08T07:12:06.013Z,99715.67
2019-03-08T07:14:32.205Z,99712.91
2019-03-08T07:16:58.375Z,99717.20
2019-03-08T07:19:24.627Z,99719.52
2019-03-08T07:21:55.635Z,99715.49
2019-03-08T07:24:39.240Z,99714.24
2019-03-08T07:27:13.345Z,99714.91
2019-03-08T07:29:41.399Z,99715.14
2019-03-08T07:32:25.735Z,99712.44
2019-03-08T07:34:59.465Z,99705.61
2019-03-08T07:37:44.143Z,99696.70
2019-03-08T07:40:21.318Z,99693.61
2019-03-08T07:45:44.282Z,99692.92
2019-03-08T07:48:30.828Z,99691.58
2019-03-08T07:51:16.835Z,99689.07
2019-03-08T07:53:50.494Z,99684.20
2019-03-08T07:56:30.266Z,99678.84
2019-03-08T07:59:04.164Z,99684.63
2019-03-08T08:01:44.081Z,99675.29
2019-03-08T08:04:18.017Z,99671.27
2019-03-08T08:06:57.699Z,99665.41
2019-03-08T08:09:25.788Z,99669.22
2019-03-08T08:11:57.792Z,99660.62
2019-03-08T08:14:39.256Z,99664.91
2019-03-08T08:17:18.000Z,99675.11
2019-03-08T08:19:48.896Z,99671.73
2019-03-08T08:22:23.695Z,99668.39
2019-03-08T08:24:51.783Z,99666.19
2019-03-08T08:27:25.377Z,99669.11
2019-03-08T08:30:02.220Z,99665.70
2019-03-08T08:32:42.024Z,99661.69
2019-03-08T08:35:19.236Z,99651.98
2019-03-08T08:37:49.840Z,99648.59
2019-03-08T08:40:17.895Z,99657.16
2019-03-08T08:42:48.756Z,99650.33
2019-03-08T08:45:22.908Z,99651.95
2019-03-08T08:47:51.244Z,99647.17
2019-03-08T08:50:19.296Z,99648.20
2019-03-08T08:52:53.369Z,99640.08
2019-03-08T08:58:29.758Z,99643.69
2019-03-08T09:01:03.633Z,99642.26
2019-03-08T09:03:48.488Z,99633.62
2019-03-08T09:06:32.825Z,99636.03
2019-03-08T09:09:00.924Z,99626.68
2019-03-08T09:11:32.008Z,99621.03
2019-03-08T09:14:00.073Z,99619.42
2019-03-08T09:16:28.158Z,99620.69
2019-03-08T09:22:11.022Z,99619.80
2019-03-08T09:24:39.084Z,99612.09
2019-03-08T09:27:12.941Z,99608.42
2019-03-08T09:29:43.775Z,99611.92
2019-03-08T09:32:12.150Z,99605.33
2019-03-08T09:34:40.461Z,99608.70
2019-03-08T09:40:11.210Z,99603.25
2019-03-08T09:45:49.290Z,99602.77
2019-03-08T09:48:29.017Z,99602.67
2019-03-08T09:50:59.637Z,99604.00
2019-03-08T09:53:40.046Z,99602.88
2019-03-08T09:56:11.906Z,99592.89
2019-03-08T09:58:46.620Z,99594.20
2019-03-08T10:01:16.824Z,99592.79
2019-03-08T10:03:46.470Z,99593.77
2019-03-08T10:11:51.826Z,99579.91
2019-03-08T10:14:19.896Z,99577.31
2019-03-08T10:17:03.074Z,99580.37
2019-03-08T10:19:31.144Z,99575.41
2019-03-08T10:22:11.325Z,99567.00
2019-03-08T10:24:57.244Z,99563.46
2019-03-08T10:27:37.827Z,99558.86
2019-03-08T10:30:01.010Z,99559.03
2019-03-08T10:32:37.518Z,99564.92
2019-03-08T10:35:23.727Z,99565.70
2019-03-08T10:37:50.680Z,99563.94
2019-03-08T10:40:18.742Z,99557.97
2019-03-08T10:43:04.788Z,99550.38
2019-03-08T10:45:35.711Z,99557.10
2019-03-08T10:48:03.771Z,99554.13
2019-03-08T10:50:31.862Z,99546.31
2019-03-08T10:52:59.938Z,99545.14
2019-03-08T10:55:28.007Z,99548.16
2019-03-08T11:03:40.662Z,99539.88
2019-03-08T11:06:11.733Z,99533.44
2019-03-08T11:08:51.906Z,99527.30
2019-03-08T11:11:37.915Z,99533.17
2019-03-08T11:14:22.586Z,99539.09
2019-03-08T11:17:07.050Z,99528.90
2019-03-08T11:19:51.428Z,99527.08
2019-03-08T11:22:19.504Z,99518.58
2019-03-08T11:24:50.101Z,99518.58
2019-03-08T11:27:18.219Z,99513.20
2019-03-08T11:29:46.300Z,99513.20
2019-03-08T11:32:26.402Z,99512.56
2019-03-08T11:35:09.801Z,99511.48
2019-03-08T11:37:52.695Z,99503.28
2019-03-08T11:40:21.159Z,99498.38
2019-03-08T11:43:01.108Z,99505.56
2019-03-08T11:51:14.694Z,99497.53
2019-03-08T11:56:32.501Z,99492.75
2019-03-08T11:59:17.210Z,99492.75
2019-03-08T12:02:01.559Z,99485.91
2019-03-08T12:09:55.914Z,99480.52
2019-03-08T12:12:26.500Z,99473.98
2019-03-08T12:14:57.943Z,99480.07
2019-03-08T12:17:31.832Z,99477.30
2019-03-08T12:25:36.284Z,99477.71
2019-03-08T12:28:19.156Z,99475.63
2019-03-08T12:33:33.730Z,99464.08
2019-03-08T12:36:18.208Z,99468.32
2019-03-08T12:38:48.794Z,99455.99
2019-03-08T12:41:19.370Z,99456.99
2019-03-08T12:43:47.462Z,99450.81
2019-03-08T12:51:45.453Z,99445.06
2019-03-08T12:54:16.689Z,99451.27
2019-03-08T12:59:47.529Z,99451.33
2019-03-08T13:02:18.214Z,99440.06
2019-03-08T13:04:49.006Z,99444.53
2019-03-08T13:07:28.844Z,99436.03
2019-03-08T13:09:56.909Z,99433.34
2019-03-08T13:12:23.077Z,99443.41
2019-03-08T13:14:49.271Z,99438.57
2019-03-08T13:17:16.029Z,99437.48
2019-03-08T13:19:42.195Z,99443.86
2019-03-08T13:22:08.392Z,99439.89
2019-03-08T13:24:34.563Z,99436.48
2019-03-08T13:27:00.724Z,99441.94
2019-03-08T13:29:26.908Z,99437.37
2019-03-08T13:31:53.080Z,99439.13
2019-03-08T13:34:19.333Z,99440.77
2019-03-08T13:36:45.755Z,99403.62
2019-03-08T13:39:11.928Z,99423.14
2019-03-08T13:41:38.092Z,99431.38
2019-03-08T13:44:04.276Z,99436.20
2019-03-08T13:46:30.444Z,99432.98
2019-03-08T13:48:56.604Z,99431.84
2019-03-08T13:51:22.803Z,99446.97
2019-03-08T13:53:48.964Z,99435.32
2019-03-08T13:56:15.139Z,99436.10
2019-03-08T13:58:41.335Z,99433.69
2019-03-08T14:01:07.499Z,99436.19
2019-03-08T14:03:33.660Z,99432.41
2019-03-08T14:05:59.844Z,99436.06
2019-03-08T14:08:26.007Z,99429.87
2019-03-08T14:10:52.171Z,99426.83
2019-03-08T14:13:18.586Z,99428.10
2019-03-08T14:15:44.738Z,99433.61
2019-03-08T14:18:10.895Z,99435.57
2019-03-08T14:20:37.094Z,99424.03
2019-03-08T14:23:03.257Z,99423.79
2019-03-08T14:25:29.420Z,99435.79
2019-03-08T14:27:55.606Z,99424.05
2019-03-08T14:30:26.981Z,99427.36
2019-03-08T14:32:53.309Z,99426.97
2019-03-08T14:35:19.904Z,99426.24
2019-03-08T14:37:46.059Z,99425.55
2019-03-08T14:43:08.682Z,99428.07
2019-03-08T14:45:40.405Z,99426.23
2019-03-08T14:48:05.968Z,99432.06
2019-03-08T14:50:35.452Z,99428.35
2019-03-08T14:53:00.983Z,99429.97
2019-03-08T14:55:27.342Z,99434.89
2019-03-08T14:57:55.361Z,99423.48
2019-03-08T15:00:25.346Z,99432.34
2019-03-08T15:02:49.967Z,99437.89
2019-03-08T15:05:19.214Z,99443.47
2019-03-08T15:07:44.319Z,99439.22
2019-03-08T15:10:15.521Z,99437.41
2019-03-08T15:12:49.049Z,99438.05
2019-03-08T15:15:11.783Z,99442.66
2019-03-08T15:17:39.063Z,99437.46
2019-03-08T15:20:18.595Z,99435.22
2019-03-08T15:22:45.261Z,99441.20
2019-03-08T15:25:14.156Z,99442.61
2019-03-08T15:27:40.533Z,99442.49
2019-03-08T15:30:12.855Z,99436.37
2019-03-08T15:32:39.113Z,99436.61
2019-03-08T15:35:07.717Z,99438.34
2019-03-08T15:37:43.656Z,99444.82
2019-03-08T15:40:03.264Z,99439.17
2019-03-08T15:42:29.568Z,99447.80
2019-03-08T15:44:55.721Z,99447.46
2019-03-08T15:47:23.821Z,99444.83
2019-03-08T15:49:49.967Z,99451.20
2019-03-08T15:52:16.327Z,99446.43
2019-03-08T15:54:42.866Z,99449.31
2019-03-08T15:57:09.075Z,99451.45
2019-03-08T15:59:35.260Z,99458.04
2019-03-08T16:02:01.943Z,99459.75
2019-03-08T16:04:29.603Z,99461.09
2019-03-08T16:06:55.880Z,99467.84
2019-03-08T16:09:22.073Z,99469.67
2019-03-08T16:11:48.272Z,99470.15
2019-03-08T16:14:14.421Z,99473.00
2019-03-08T16:16:40.579Z,99480.94
2019-03-08T16:19:06.781Z,99482.33
2019-03-08T16:21:33.044Z,99488.08
2019-03-08T16:23:59.505Z,99489.95
2019-03-08T16:26:26.412Z,99503.61
2019-03-08T16:28:52.766Z,99507.50
2019-03-08T16:31:30.499Z,99512.30
2019-03-08T16:34:01.389Z,99505.95
2019-03-08T16:39:09.370Z,99520.16
2019-03-08T16:41:53.827Z,99524.41
2019-03-08T16:44:27.583Z,99526.23
2019-03-08T16:46:55.582Z,99535.14
2019-03-08T16:49:23.820Z,99530.86
2019-03-08T16:51:51.886Z,99527.91
2019-03-08T16:54:22.519Z,99530.34
2019-03-08T16:59:34.153Z,99535.67
2019-03-08T17:02:06.273Z,99541.04
2019-03-08T17:04:34.370Z,99546.31
2019-03-08T17:07:19.322Z,99550.61
2019-03-08T17:09:47.419Z,99550.53
2019-03-08T17:12:15.481Z,99545.01
2019-03-08T17:15:00.342Z,99553.23
2019-03-08T17:17:43.581Z,99548.73
2019-03-08T17:20:11.681Z,99550.27
2019-03-08T17:22:40.621Z,99556.73
2019-03-08T17:25:09.101Z,99551.02
2019-03-08T17:27:40.022Z,99552.30
2019-03-08T17:30:11.703Z,99554.56
2019-03-08T17:32:45.633Z,99554.40
2019-03-08T17:35:13.699Z,99559.11
2019-03-08T17:37:50.494Z,99557.86
2019-03-08T17:40:18.564Z,99561.81
2019-03-08T17:42:46.630Z,99565.16
2019-03-08T17:45:32.853Z,99565.81
2019-03-08T17:48:12.799Z,99560.11
2019-03-08T17:50:43.660Z,99561.14
2019-03-08T17:53:11.718Z,99560.51
2019-03-08T17:55:45.750Z,99562.89
2019-03-08T18:01:01.100Z,99577.27
2019-03-08T18:03:34.913Z,99581.69
2019-03-08T18:06:03.024Z,99583.92
2019-03-08T18:08:31.088Z,99581.14
2019-03-08T18:10:59.146Z,99586.84
2019-03-08T18:13:27.240Z,99592.96
2019-03-08T18:16:04.206Z,99594.61
2019-03-08T18:18:48.830Z,99601.55
2019-03-08T18:21:16.890Z,99604.09
2019-03-08T18:23:59.827Z,99604.05
2019-03-08T18:26:27.882Z,99611.20
2019-03-08T18:28:55.946Z,99613.73
2019-03-08T18:31:24.028Z,99615.30
2019-03-08T18:33:52.091Z,99610.89
2019-03-08T18:36:20.183Z,99618.52
2019-03-08T18:39:06.175Z,99618.69
2019-03-08T18:41:34.248Z,99619.23
2019-03-08T18:44:02.298Z,99629.25
2019-03-08T18:46:36.093Z,99629.26
2019-03-08T18:49:20.470Z,99626.78
2019-03-08T18:51:48.558Z,99630.64
2019-03-08T18:54:25.650Z,99631.69
2019-03-08T18:56:57.184Z,99633.95
2019-03-08T18:59:30.783Z,99630.00
2019-03-08T19:02:13.901Z,99626.67
2019-03-08T19:04:44.743Z,99623.55
2019-03-08T19:07:18.619Z,99630.63
2019-03-08T19:09:58.475Z,99636.42
2019-03-08T19:12:26.579Z,99644.24
2019-03-08T19:14:54.649Z,99646.31
2019-03-08T19:17:25.472Z,99641.68
2019-03-08T19:19:53.580Z,99646.50
2019-03-08T19:22:26.488Z,99649.87
2019-03-08T19:25:07.925Z,99651.48
2019-03-08T19:27:44.772Z,99647.07
2019-03-08T19:30:23.210Z,99653.06
2019-03-08T19:35:50.641Z,99651.10
2019-03-08T19:38:27.443Z,99651.10
2019-03-08T19:41:12.224Z,99648.89
2019-03-08T19:43:46.380Z,99655.17
2019-03-08T19:46:14.441Z,99663.09
2019-03-08T19:48:57.603Z,99661.81
2019-03-08T19:51:37.412Z,99656.02
2019-03-08T19:54:11.323Z,99666.87
2019-03-08T19:56:44.937Z,99666.20
2019-03-08T19:59:21.884Z,99662.82
2019-03-08T20:01:49.952Z,99661.98
2019-03-08T20:04:18.016Z,99659.66
2019-03-08T20:07:02.933Z,99659.16
2019-03-08T20:09:30.997Z,99666.03
2019-03-08T20:12:01.828Z,99663.13
2019-03-08T20:14:44.740Z,99670.14
2019-03-08T20:17:31.140Z,99671.88
2019-03-08T20:20:17.258Z,99674.03
2019-03-08T20:23:01.665Z,99675.66
2019-03-08T20:25:46.125Z,99676.80
2019-03-08T20:28:28.954Z,99681.00
2019-03-08T20:31:09.187Z,99691.58
2019-03-08T20:33:53.833Z,99691.73
2019-03-08T20:36:28.261Z,99687.86
2019-03-08T20:38:56.326Z,99677.56
2019-03-08T20:41:24.398Z,99688.23
2019-03-08T20:43:55.016Z,99682.73
2019-03-08T20:46:28.855Z,99681.07
2019-03-08T20:48:55.117Z,99680.37
2019-03-08T20:51:21.313Z,99674.49
2019-03-08T20:53:47.465Z,99673.56
2019-03-08T20:56:13.624Z,99681.94
2019-03-08T20:58:39.818Z,99677.93
2019-03-08T21:01:05.970Z,99678.61
2019-03-08T21:03:32.152Z,99681.59
2019-03-08T21:05:58.456Z,99682.70
2019-03-08T21:08:24.595Z,99675.47
2019-03-08T21:10:50.872Z,99678.76
2019-03-08T21:13:17.174Z,99680.58
2019-03-08T21:15:43.330Z,99682.70
2019-03-08T21:18:09.498Z,99681.00
2019-03-08T21:20:35.705Z,99679.44
2019-03-08T21:23:01.964Z,99683.59
2019-03-08T21:25:28.115Z,99684.46
2019-03-08T21:27:54.315Z,99681.24
2019-03-08T21:30:20.469Z,99690.03
2019-03-08T21:32:46.633Z,99674.59
2019-03-08T21:35:12.875Z,99674.47
2019-03-08T21:37:39.031Z,99680.56
2019-03-08T21:40:07.284Z,99678.11
2019-03-08T21:42:33.472Z,99672.40
2019-03-08T21:44:59.631Z,99672.53
2019-03-08T21:47:25.797Z,99665.84
2019-03-08T21:49:51.981Z,99664.36
2019-03-08T21:52:18.146Z,99667.19
2019-03-08T21:54:44.511Z,99671.25
2019-03-08T21:57:10.767Z,99674.55
2019-03-08T21:59:36.917Z,99680.82
2019-03-08T22:02:04.086Z,99673.66
2019-03-08T22:04:32.323Z,99667.97
2019-03-08T22:06:58.483Z,99672.28
2019-03-08T22:09:26.552Z,99675.06
2019-03-08T22:11:52.857Z,99684.39
2019-03-08T22:14:19.126Z,99688.08
2019-03-08T22:16:45.276Z,99687.94
2019-03-08T22:19:11.473Z,99691.77
2019-03-08T22:21:37.636Z,99695.68
2019-03-08T22:24:12.847Z,99692.00
2019-03-08T22:26:31.996Z,99695.91
2019-03-08T22:28:58.254Z,99705.58
2019-03-08T22:31:24.406Z,99699.91
2019-03-08T22:33:50.705Z,99706.36
2019-03-08T22:36:16.855Z,99698.70
2019-03-08T22:38:43.121Z,99694.37
2019-03-08T22:41:09.315Z,99696.28
2019-03-08T22:43:35.471Z,99700.17
2019-03-08T22:46:01.629Z,99705.45
2019-03-08T22:48:27.828Z,99715.13
2019-03-08T22:50:53.991Z,99714.88
2019-03-08T22:53:20.158Z,99714.84
2019-03-08T22:55:46.358Z,99711.58
2019-03-08T22:58:12.507Z,99709.39
2019-03-08T23:00:58.550Z,99712.70
2019-03-08T23:03:24.843Z,99716.55
2019-03-08T23:05:51.167Z,99717.77
2019-03-08T23:08:17.358Z,99727.89
2019-03-08T23:10:44.123Z,99723.77
2019-03-08T23:13:10.386Z,99720.05
2019-03-08T23:15:36.593Z,99722.34
2019-03-08T23:18:02.765Z,99724.81
2019-03-08T23:20:28.920Z,99723.16
2019-03-08T23:22:55.115Z,99727.20
2019-03-08T23:25:21.281Z,99730.27
2019-03-08T23:27:49.346Z,99726.20
2019-03-08T23:30:17.434Z,99721.80
2019-03-08T23:32:44.803Z,99729.77
2019-03-08T23:35:11.066Z,99729.48
2019-03-08T23:37:37.272Z,99733.89
2019-03-08T23:40:05.034Z,99731.72
2019-03-08T23:42:31.208Z,99729.77
2019-03-08T23:44:57.407Z,99729.47
2019-03-08T23:47:23.687Z,99730.05
2019-03-08T23:49:49.834Z,99728.69
2019-03-08T23:52:16.023Z,99723.98
2019-03-08T23:54:42.286Z,99723.16
2019-03-08T23:57:08.739Z,99717.67
2019-03-08T23:59:34.928Z,99724.80
